METAR AND TAF INFORMATION
METAR FOR GMMX
ADDS - METARS form results

(0335 UTC 26 February 2020)
Data provider http://aviationweather.gov/metar/data/
 
METAR text: GMMX 260330Z 08003KT 8000 NSC 11/07 Q1023 NOSIG
Conditions at: GMMX (MARRAKECH/MENARA, MA) observed 0330 UTC 26 February 2020
Temperature: 11.0°C (52°F)
Dewpoint: 7.0°C (45°F) [RH = 76%]
Pressure (altimeter): 30.21 inches Hg (1023.0 mb)
Winds: from the E (80 degrees) at 3 MPH (3 knots; 1.5 m/s)
Visibility: 5 miles ( 8 km)
Ceiling: at least 12,000 feet AGL
Clouds: sky clear below 12,000 feet AGL
Weather: no significant weather observed at this time

METAR text: GMMX 260300Z 10003KT CAVOK 11/07 Q1024 NOSIG
Conditions at: GMMX (MARRAKECH/MENARA, MA) observed 0300 UTC 26 February 2020
Temperature: 11.0°C (52°F)
Dewpoint: 7.0°C (45°F) [RH = 76%]
Pressure (altimeter): 30.24 inches Hg (1024.0 mb)
Winds: from the E (100 degrees) at 3 MPH (3 knots; 1.5 m/s)
Visibility: 6 or more miles (10+ km)
Ceiling: ceiling and visibility are OK
Clouds: unknown
Weather: no significant weather observed at this time

Forecast for: GMMX (MARRAKECH/MENARA, MA)
Text: TAF GMMX 252300Z 2600/2706 04006KT 8000 NSC
Forecast period: 0000 UTC 26 February 2020 to 0600 UTC 27 February 2020
Forecast type: FROM: standard forecast or significant change
Winds: from the NE (40 degrees) at 7 MPH (6 knots; 3.1 m/s)
Visibility: 5 miles (8 km)
Ceiling: unknown
Clouds: missing
Weather: no significant weather forecast for this period
Text: PROB40
Forecast period: 0200 to 1000 UTC 26 February 2020
Forecast type: TEMPORARY: The following changes expected for less than half the time period
Visibility: 2.49 miles (4.01 km)
Ceiling: 1000 feet AGL
Clouds: broken clouds at 1000 feet AGL
Weather: BR  (mist)
Text: TEMPO 2602/2610 4000 BR BKN010
Forecast period: 1400 to 2200 UTC 26 February 2020
Forecast type: TEMPORARY: The following changes expected for less than half the time period
Winds: from the NNW (340 degrees) at 18 MPH (16 knots; 8.2 m/s)
Visibility: missing
Ceiling: unknown
Clouds: missing
Weather: no significant weather forecast for this period

 AIRPORT MAP

 RUNWAY INFORMATION
Runway 10 Runway length 10170 ft Runway width 148 ft
Runway elevation 1506 ft Runway displaced threshold 918 ft Runway heading 96
Runway 28 Runway length 10170 ft Runway width 148 ft
Runway elevation 1545 ft Runway displaced threshold 0 ft Runway heading 276

 AIRPORT FREQUENCIES
Type APP Name MARRAKECH Frequency 119.7 MHZ
Type TWR Name MARRAKECH Frequency 118.7 MHZ

 AIRPORT NEAR NAVIGATION AIDS
Type NDB Name Marrakech Frequency 267 KHZ
Type VOR-DME Name Marrakech Frequency 113300 KHZ



Powered by Virtual Airlines Manager [v2.6.2]